Ext Salazar, Puerto Rico
Current Conditions -  °F | °C
As of 7:50 AM on Thursday 18 Dec 2014 (Local Time) from TJBQ Reporting Station
Light Rain Light Rain  
Wind Chill: 72°   Ceiling: 7000
Heat Index: 72°   Visibility: 6mi
Dew Point: 70°   Wind: 5mph
Humidity: 94%   Direction: 10°N
Pressure: 30.05"   Gusts: NA
Location:  18.0055°N, 66.6209°W
Report Text: TJBQ 181150Z 01004KT 6SM -RA SCT045 SCT055 OVC070 22/21 A3005 RMK RWY08 ATIS R
Loading
Personal Weather Stations






























Interactive Weather Map New forecast layout! Learn more

10-Day Weather Forecast

Advertisements
Track Severe Weather on mobile